sensor_id;sensor_type;location;lat;lon;timestamp;pressure;altitude;pressure_sealevel;temperature;humidity
77526;BME280;66627;29.424;-98.496;2023-05-16T00:00:43;99385.47;;;23.82;51.06
77526;BME280;66627;29.424;-98.496;2023-05-16T00:03:08;99386.23;;;23.85;50.59
77526;BME280;66627;29.424;-98.496;2023-05-16T00:05:34;99383.22;;;24.74;48.75
77526;BME280;66627;29.424;-98.496;2023-05-16T00:07:59;99386.34;;;25.22;48.17
77526;BME280;66627;29.424;-98.496;2023-05-16T00:10:24;99384.88;;;24.54;49.13
77526;BME280;66627;29.424;-98.496;2023-05-16T00:12:49;99386.56;;;24.51;49.27
77526;BME280;66627;29.424;-98.496;2023-05-16T00:15:14;99388.24;;;23.46;51.05
77526;BME280;66627;29.424;-98.496;2023-05-16T00:17:40;99398.50;;;24.90;50.48
77526;BME280;66627;29.424;-98.496;2023-05-16T00:20:05;99405.92;;;24.98;50.05
77526;BME280;66627;29.424;-98.496;2023-05-16T00:22:30;99414.63;;;25.01;49.23
77526;BME280;66627;29.424;-98.496;2023-05-16T00:24:55;99420.00;;;24.44;48.73
77526;BME280;66627;29.424;-98.496;2023-05-16T00:27:20;99423.72;;;23.86;50.40
77526;BME280;66627;29.424;-98.496;2023-05-16T00:29:45;99417.78;;;23.63;50.99
77526;BME280;66627;29.424;-98.496;2023-05-16T00:32:10;99426.27;;;24.42;49.58
77526;BME280;66627;29.424;-98.496;2023-05-16T00:34:35;99412.78;;;23.54;50.91
77526;BME280;66627;29.424;-98.496;2023-05-16T00:37:01;99412.70;;;23.92;51.14
77526;BME280;66627;29.424;-98.496;2023-05-16T00:39:25;99426.34;;;23.83;51.18
77526;BME280;66627;29.424;-98.496;2023-05-16T00:41:50;99430.27;;;24.25;51.00
77526;BME280;66627;29.424;-98.496;2023-05-16T00:44:15;99427.05;;;23.83;50.94
77526;BME280;66627;29.424;-98.496;2023-05-16T00:46:41;99429.47;;;24.01;51.54
77526;BME280;66627;29.424;-98.496;2023-05-16T00:49:06;99433.00;;;23.97;51.61
77526;BME280;66627;29.424;-98.496;2023-05-16T00:51:31;99442.22;;;23.62;51.53
77526;BME280;66627;29.424;-98.496;2023-05-16T00:54:01;99446.20;;;23.35;52.27
77526;BME280;66627;29.424;-98.496;2023-05-16T00:56:22;99446.42;;;23.44;51.36
77526;BME280;66627;29.424;-98.496;2023-05-16T00:58:46;99443.99;;;23.95;51.33
77526;BME280;66627;29.424;-98.496;2023-05-16T01:01:12;99441.72;;;23.31;51.55
77526;BME280;66627;29.424;-98.496;2023-05-16T01:03:38;99437.21;;;24.48;50.72
77526;BME280;66627;29.424;-98.496;2023-05-16T01:06:02;99430.69;;;24.13;51.14
77526;BME280;66627;29.424;-98.496;2023-05-16T01:08:27;99425.80;;;22.92;52.63
77526;BME280;66627;29.424;-98.496;2023-05-16T01:11:01;99429.14;;;23.94;51.87
77526;BME280;66627;29.424;-98.496;2023-05-16T01:13:24;99429.76;;;24.09;50.64
77526;BME280;66627;29.424;-98.496;2023-05-16T01:15:49;99425.94;;;24.00;51.19
77526;BME280;66627;29.424;-98.496;2023-05-16T01:18:14;99421.33;;;23.76;52.29
77526;BME280;66627;29.424;-98.496;2023-05-16T01:20:39;99413.01;;;23.36;52.46
77526;BME280;66627;29.424;-98.496;2023-05-16T01:23:11;99412.53;;;22.50;54.79
77526;BME280;66627;29.424;-98.496;2023-05-16T01:25:35;99412.46;;;22.83;54.89
77526;BME280;66627;29.424;-98.496;2023-05-16T01:27:49;99408.99;;;23.83;52.35
77526;BME280;66627;29.424;-98.496;2023-05-16T01:30:16;99408.46;;;23.61;53.34
77526;BME280;66627;29.424;-98.496;2023-05-16T01:32:39;99404.95;;;23.55;54.43
77526;BME280;66627;29.424;-98.496;2023-05-16T01:35:05;99403.52;;;23.33;54.81
77526;BME280;66627;29.424;-98.496;2023-05-16T01:37:35;99395.03;;;23.64;54.15
77526;BME280;66627;29.424;-98.496;2023-05-16T01:39:58;99388.73;;;23.48;54.72
77526;BME280;66627;29.424;-98.496;2023-05-16T01:42:22;99384.14;;;23.37;53.98
77526;BME280;66627;29.424;-98.496;2023-05-16T01:44:49;99379.86;;;22.99;55.48
77526;BME280;66627;29.424;-98.496;2023-05-16T01:47:12;99375.75;;;22.80;56.15
77526;BME280;66627;29.424;-98.496;2023-05-16T01:49:38;99363.87;;;22.91;55.06
77526;BME280;66627;29.424;-98.496;2023-05-16T01:52:06;99364.48;;;23.06;54.73
77526;BME280;66627;29.424;-98.496;2023-05-16T01:54:30;99360.58;;;22.55;56.40
77526;BME280;66627;29.424;-98.496;2023-05-16T01:56:52;99360.66;;;22.82;56.29
77526;BME280;66627;29.424;-98.496;2023-05-16T01:59:16;99362.32;;;23.09;54.62
77526;BME280;66627;29.424;-98.496;2023-05-16T02:01:41;99359.68;;;23.11;54.35
77526;BME280;66627;29.424;-98.496;2023-05-16T02:04:06;99357.85;;;22.62;55.45
77526;BME280;66627;29.424;-98.496;2023-05-16T02:06:31;99364.76;;;22.91;55.18
77526;BME280;66627;29.424;-98.496;2023-05-16T02:08:57;99362.20;;;22.58;56.54
77526;BME280;66627;29.424;-98.496;2023-05-16T02:11:22;99359.25;;;22.95;54.92
77526;BME280;66627;29.424;-98.496;2023-05-16T02:13:47;99362.12;;;22.81;56.44
77526;BME280;66627;29.424;-98.496;2023-05-16T02:16:12;99364.55;;;22.80;56.74
77526;BME280;66627;29.424;-98.496;2023-05-16T02:18:38;99365.36;;;23.51;55.75
77526;BME280;66627;29.424;-98.496;2023-05-16T02:21:03;99371.62;;;23.79;55.75
77526;BME280;66627;29.424;-98.496;2023-05-16T02:23:28;99375.88;;;23.46;54.73
77526;BME280;66627;29.424;-98.496;2023-05-16T02:25:53;99380.84;;;23.36;54.63
77526;BME280;66627;29.424;-98.496;2023-05-16T02:28:19;99387.37;;;23.60;54.09
77526;BME280;66627;29.424;-98.496;2023-05-16T02:30:45;99397.57;;;24.11;53.51
77526;BME280;66627;29.424;-98.496;2023-05-16T02:33:11;99402.03;;;22.98;55.47
77526;BME280;66627;29.424;-98.496;2023-05-16T02:35:35;99415.39;;;23.28;55.07
77526;BME280;66627;29.424;-98.496;2023-05-16T02:38:00;99417.43;;;23.74;54.78
77526;BME280;66627;29.424;-98.496;2023-05-16T02:40:25;99412.80;;;24.33;53.65
77526;BME280;66627;29.424;-98.496;2023-05-16T02:42:51;99417.72;;;24.13;54.18
77526;BME280;66627;29.424;-98.496;2023-05-16T02:45:16;99414.59;;;22.67;54.31
77526;BME280;66627;29.424;-98.496;2023-05-16T02:47:41;99423.63;;;24.15;53.13
77526;BME280;66627;29.424;-98.496;2023-05-16T02:50:07;99422.19;;;23.94;52.59
77526;BME280;66627;29.424;-98.496;2023-05-16T02:52:32;99425.18;;;24.21;51.93
77526;BME280;66627;29.424;-98.496;2023-05-16T02:54:57;99430.25;;;24.02;51.69
77526;BME280;66627;29.424;-98.496;2023-05-16T02:57:22;99437.52;;;24.54;50.97
77526;BME280;66627;29.424;-98.496;2023-05-16T02:59:48;99440.96;;;24.29;51.07
77526;BME280;66627;29.424;-98.496;2023-05-16T03:02:13;99441.60;;;24.00;52.19
77526;BME280;66627;29.424;-98.496;2023-05-16T03:04:38;99440.80;;;23.49;52.56
77526;BME280;66627;29.424;-98.496;2023-05-16T03:07:03;99441.71;;;24.50;51.46
77526;BME280;66627;29.424;-98.496;2023-05-16T03:09:28;99441.64;;;23.43;52.96
77526;BME280;66627;29.424;-98.496;2023-05-16T03:11:54;99445.34;;;22.19;54.50
77526;BME280;66627;29.424;-98.496;2023-05-16T03:14:19;99443.76;;;22.07;55.58
77526;BME280;66627;29.424;-98.496;2023-05-16T03:16:44;99443.32;;;22.74;54.30
77526;BME280;66627;29.424;-98.496;2023-05-16T03:19:09;99441.04;;;23.52;53.47
77526;BME280;66627;29.424;-98.496;2023-05-16T03:21:34;99446.30;;;22.66;53.84
77526;BME280;66627;29.424;-98.496;2023-05-16T03:23:59;99443.35;;;23.01;52.76
77526;BME280;66627;29.424;-98.496;2023-05-16T03:26:25;99444.27;;;23.61;52.24
77526;BME280;66627;29.424;-98.496;2023-05-16T03:28:50;99448.36;;;23.16;52.24
77526;BME280;66627;29.424;-98.496;2023-05-16T03:31:15;99455.18;;;23.47;52.01
77526;BME280;66627;29.424;-98.496;2023-05-16T03:33:40;99457.79;;;23.98;51.23
77526;BME280;66627;29.424;-98.496;2023-05-16T03:36:06;99458.58;;;24.00;51.26
77526;BME280;66627;29.424;-98.496;2023-05-16T03:38:30;99458.19;;;24.06;51.05
77526;BME280;66627;29.424;-98.496;2023-05-16T03:40:56;99456.30;;;24.08;50.84
77526;BME280;66627;29.424;-98.496;2023-05-16T03:43:21;99449.03;;;23.26;51.46
77526;BME280;66627;29.424;-98.496;2023-05-16T03:45:46;99442.61;;;22.89;52.02
77526;BME280;66627;29.424;-98.496;2023-05-16T03:48:12;99438.46;;;23.08;52.11
77526;BME280;66627;29.424;-98.496;2023-05-16T03:50:37;99442.56;;;23.64;51.55
77526;BME280;66627;29.424;-98.496;2023-05-16T03:53:02;99442.45;;;23.19;52.19
77526;BME280;66627;29.424;-98.496;2023-05-16T03:55:27;99448.26;;;23.68;51.91
77526;BME280;66627;29.424;-98.496;2023-05-16T03:57:52;99454.91;;;23.98;50.75
77526;BME280;66627;29.424;-98.496;2023-05-16T04:00:17;99455.82;;;24.32;50.82
77526;BME280;66627;29.424;-98.496;2023-05-16T04:02:42;99458.34;;;23.72;50.94
77526;BME280;66627;29.424;-98.496;2023-05-16T04:05:09;99456.92;;;23.46;50.13
77526;BME280;66627;29.424;-98.496;2023-05-16T04:07:33;99456.22;;;24.20;50.38
77526;BME280;66627;29.424;-98.496;2023-05-16T04:09:58;99453.34;;;24.18;50.24
77526;BME280;66627;29.424;-98.496;2023-05-16T04:12:23;99452.39;;;24.18;50.13
77526;BME280;66627;29.424;-98.496;2023-05-16T04:14:48;99448.69;;;23.31;51.01
77526;BME280;66627;29.424;-98.496;2023-05-16T04:17:13;99446.18;;;22.69;52.27
77526;BME280;66627;29.424;-98.496;2023-05-16T04:19:38;99447.03;;;23.08;51.16
77526;BME280;66627;29.424;-98.496;2023-05-16T04:22:04;99445.34;;;23.23;50.95
77526;BME280;66627;29.424;-98.496;2023-05-16T04:24:29;99450.02;;;23.57;50.29
77526;BME280;66627;29.424;-98.496;2023-05-16T04:26:54;99454.95;;;23.48;49.72
77526;BME280;66627;29.424;-98.496;2023-05-16T04:29:19;99454.92;;;23.69;50.46
77526;BME280;66627;29.424;-98.496;2023-05-16T04:31:44;99450.83;;;23.13;50.81
77526;BME280;66627;29.424;-98.496;2023-05-16T04:34:09;99449.64;;;23.86;49.99
77526;BME280;66627;29.424;-98.496;2023-05-16T04:36:34;99450.20;;;23.76;50.12
77526;BME280;66627;29.424;-98.496;2023-05-16T04:39:00;99452.01;;;23.61;50.61
77526;BME280;66627;29.424;-98.496;2023-05-16T04:41:24;99449.54;;;23.98;49.77
77526;BME280;66627;29.424;-98.496;2023-05-16T04:43:49;99451.94;;;23.82;49.76
77526;BME280;66627;29.424;-98.496;2023-05-16T04:46:15;99452.21;;;23.83;49.82
77526;BME280;66627;29.424;-98.496;2023-05-16T04:48:40;99450.77;;;23.54;50.27
77526;BME280;66627;29.424;-98.496;2023-05-16T04:51:05;99449.63;;;23.67;50.53
77526;BME280;66627;29.424;-98.496;2023-05-16T04:53:30;99444.92;;;23.42;50.21
77526;BME280;66627;29.424;-98.496;2023-05-16T04:55:55;99444.58;;;23.62;50.22
77526;BME280;66627;29.424;-98.496;2023-05-16T04:58:20;99441.47;;;22.96;50.87
77526;BME280;66627;29.424;-98.496;2023-05-16T05:00:45;99437.58;;;23.35;50.18
77526;BME280;66627;29.424;-98.496;2023-05-16T05:03:11;99437.13;;;23.43;50.04
77526;BME280;66627;29.424;-98.496;2023-05-16T05:05:35;99434.04;;;23.61;50.54
77526;BME280;66627;29.424;-98.496;2023-05-16T05:08:01;99428.03;;;23.25;50.39
77526;BME280;66627;29.424;-98.496;2023-05-16T05:10:26;99429.13;;;23.28;51.24
77526;BME280;66627;29.424;-98.496;2023-05-16T05:12:51;99434.16;;;24.09;50.12
77526;BME280;66627;29.424;-98.496;2023-05-16T05:15:16;99436.36;;;23.31;51.22
77526;BME280;66627;29.424;-98.496;2023-05-16T05:17:41;99439.34;;;23.51;50.79
77526;BME280;66627;29.424;-98.496;2023-05-16T05:20:07;99438.19;;;23.90;49.37
77526;BME280;66627;29.424;-98.496;2023-05-16T05:22:32;99430.04;;;23.70;50.00
77526;BME280;66627;29.424;-98.496;2023-05-16T05:24:57;99423.27;;;23.81;49.61
77526;BME280;66627;29.424;-98.496;2023-05-16T05:27:22;99422.08;;;23.76;49.65
77526;BME280;66627;29.424;-98.496;2023-05-16T05:29:47;99420.60;;;23.88;49.39
77526;BME280;66627;29.424;-98.496;2023-05-16T05:32:13;99419.22;;;22.95;52.07
77526;BME280;66627;29.424;-98.496;2023-05-16T05:34:38;99418.59;;;23.40;51.19
77526;BME280;66627;29.424;-98.496;2023-05-16T05:37:04;99418.79;;;22.37;54.07
77526;BME280;66627;29.424;-98.496;2023-05-16T05:39:28;99413.39;;;22.48;53.83
77526;BME280;66627;29.424;-98.496;2023-05-16T05:41:53;99410.71;;;22.55;54.11
77526;BME280;66627;29.424;-98.496;2023-05-16T05:44:19;99407.24;;;23.44;52.89
77526;BME280;66627;29.424;-98.496;2023-05-16T05:46:44;99409.51;;;22.70;53.80
77526;BME280;66627;29.424;-98.496;2023-05-16T05:49:09;99406.39;;;22.04;54.68
77526;BME280;66627;29.424;-98.496;2023-05-16T05:51:35;99396.43;;;22.13;55.35
77526;BME280;66627;29.424;-98.496;2023-05-16T05:54:01;99392.31;;;22.53;54.61
77526;BME280;66627;29.424;-98.496;2023-05-16T05:56:25;99391.62;;;22.75;53.42
77526;BME280;66627;29.424;-98.496;2023-05-16T05:58:50;99393.46;;;23.25;53.14
77526;BME280;66627;29.424;-98.496;2023-05-16T06:01:16;99394.01;;;23.39;53.03
77526;BME280;66627;29.424;-98.496;2023-05-16T06:03:41;99390.23;;;22.53;53.88
77526;BME280;66627;29.424;-98.496;2023-05-16T06:06:06;99388.70;;;23.35;52.39
77526;BME280;66627;29.424;-98.496;2023-05-16T06:08:31;99385.50;;;22.95;53.18
77526;BME280;66627;29.424;-98.496;2023-05-16T06:10:57;99375.99;;;23.10;53.72
77526;BME280;66627;29.424;-98.496;2023-05-16T06:13:22;99374.46;;;23.37;51.80
77526;BME280;66627;29.424;-98.496;2023-05-16T06:15:50;99369.89;;;23.37;52.12
77526;BME280;66627;29.424;-98.496;2023-05-16T06:18:12;99366.28;;;23.41;51.29
77526;BME280;66627;29.424;-98.496;2023-05-16T06:20:38;99365.40;;;23.70;50.90
77526;BME280;66627;29.424;-98.496;2023-05-16T06:23:03;99368.15;;;23.42;52.24
77526;BME280;66627;29.424;-98.496;2023-05-16T06:25:28;99372.06;;;23.27;52.65
77526;BME280;66627;29.424;-98.496;2023-05-16T06:27:53;99372.35;;;23.29;52.38
77526;BME280;66627;29.424;-98.496;2023-05-16T06:30:19;99369.13;;;23.12;52.44
77526;BME280;66627;29.424;-98.496;2023-05-16T06:32:44;99367.31;;;23.83;51.52
77526;BME280;66627;29.424;-98.496;2023-05-16T06:35:10;99361.92;;;23.06;51.91
77526;BME280;66627;29.424;-98.496;2023-05-16T06:37:35;99357.71;;;23.68;51.31
77526;BME280;66627;29.424;-98.496;2023-05-16T06:40:00;99357.81;;;23.74;52.24
77526;BME280;66627;29.424;-98.496;2023-05-16T06:42:25;99348.71;;;22.68;53.46
77526;BME280;66627;29.424;-98.496;2023-05-16T06:44:50;99346.71;;;23.15;52.61
77526;BME280;66627;29.424;-98.496;2023-05-16T06:47:15;99343.51;;;23.36;52.32
77526;BME280;66627;29.424;-98.496;2023-05-16T06:49:40;99344.27;;;22.85;52.61
77526;BME280;66627;29.424;-98.496;2023-05-16T06:52:06;99342.19;;;22.77;52.61
77526;BME280;66627;29.424;-98.496;2023-05-16T06:54:31;99346.79;;;23.31;51.34
77526;BME280;66627;29.424;-98.496;2023-05-16T06:56:56;99344.27;;;22.93;53.55
77526;BME280;66627;29.424;-98.496;2023-05-16T06:59:22;99345.85;;;21.77;56.19
77526;BME280;66627;29.424;-98.496;2023-05-16T07:01:47;99340.76;;;21.27;57.66
77526;BME280;66627;29.424;-98.496;2023-05-16T07:04:12;99337.41;;;21.90;56.87
77526;BME280;66627;29.424;-98.496;2023-05-16T07:06:37;99331.96;;;21.39;57.56
77526;BME280;66627;29.424;-98.496;2023-05-16T07:09:02;99329.06;;;21.64;56.82
77526;BME280;66627;29.424;-98.496;2023-05-16T07:11:28;99323.07;;;22.41;55.40
77526;BME280;66627;29.424;-98.496;2023-05-16T07:13:52;99321.66;;;22.82;54.83
77526;BME280;66627;29.424;-98.496;2023-05-16T07:16:18;99317.73;;;23.15;54.29
77526;BME280;66627;29.424;-98.496;2023-05-16T07:18:43;99318.59;;;22.77;53.93
77526;BME280;66627;29.424;-98.496;2023-05-16T07:21:08;99319.98;;;23.15;53.21
77526;BME280;66627;29.424;-98.496;2023-05-16T07:23:33;99318.25;;;22.99;53.55
77526;BME280;66627;29.424;-98.496;2023-05-16T07:25:58;99319.95;;;23.28;52.99
77526;BME280;66627;29.424;-98.496;2023-05-16T07:28:23;99315.96;;;23.38;52.20
77526;BME280;66627;29.424;-98.496;2023-05-16T07:30:49;99313.51;;;23.12;52.79
77526;BME280;66627;29.424;-98.496;2023-05-16T07:33:14;99309.99;;;23.52;52.35
77526;BME280;66627;29.424;-98.496;2023-05-16T07:35:40;99307.17;;;22.98;53.24
77526;BME280;66627;29.424;-98.496;2023-05-16T07:38:05;99305.31;;;23.27;53.37
77526;BME280;66627;29.424;-98.496;2023-05-16T07:40:30;99301.82;;;23.48;52.53
77526;BME280;66627;29.424;-98.496;2023-05-16T07:42:56;99308.42;;;21.84;56.06
77526;BME280;66627;29.424;-98.496;2023-05-16T07:45:22;99308.57;;;22.54;55.32
77526;BME280;66627;29.424;-98.496;2023-05-16T07:47:47;99308.67;;;22.27;55.87
77526;BME280;66627;29.424;-98.496;2023-05-16T07:50:12;99308.75;;;21.60;57.17
77526;BME280;66627;29.424;-98.496;2023-05-16T07:52:37;99309.11;;;21.20;58.01
77526;BME280;66627;29.424;-98.496;2023-05-16T07:55:02;99317.06;;;21.35;57.53
77526;BME280;66627;29.424;-98.496;2023-05-16T07:57:27;99319.80;;;20.84;58.91
77526;BME280;66627;29.424;-98.496;2023-05-16T07:59:53;99314.71;;;21.21;59.12
77526;BME280;66627;29.424;-98.496;2023-05-16T08:02:18;99306.77;;;21.97;57.68
77526;BME280;66627;29.424;-98.496;2023-05-16T08:04:43;99301.09;;;21.97;57.34
77526;BME280;66627;29.424;-98.496;2023-05-16T08:07:08;99299.22;;;21.59;57.18
77526;BME280;66627;29.424;-98.496;2023-05-16T08:09:34;99296.27;;;21.66;57.36
77526;BME280;66627;29.424;-98.496;2023-05-16T08:11:58;99293.41;;;22.02;56.29
77526;BME280;66627;29.424;-98.496;2023-05-16T08:14:24;99288.74;;;22.35;55.49
77526;BME280;66627;29.424;-98.496;2023-05-16T08:16:49;99287.49;;;22.25;55.37
77526;BME280;66627;29.424;-98.496;2023-05-16T08:19:14;99289.26;;;21.40;57.45
77526;BME280;66627;29.424;-98.496;2023-05-16T08:21:40;99287.41;;;21.71;56.63
77526;BME280;66627;29.424;-98.496;2023-05-16T08:24:06;99280.98;;;22.63;54.35
77526;BME280;66627;29.424;-98.496;2023-05-16T08:26:31;99276.85;;;22.85;54.29
77526;BME280;66627;29.424;-98.496;2023-05-16T08:28:55;99275.63;;;23.04;53.19
77526;BME280;66627;29.424;-98.496;2023-05-16T08:31:21;99278.10;;;21.87;55.83
77526;BME280;66627;29.424;-98.496;2023-05-16T08:33:46;99286.10;;;22.49;55.22
77526;BME280;66627;29.424;-98.496;2023-05-16T08:36:11;99289.28;;;22.49;54.81
77526;BME280;66627;29.424;-98.496;2023-05-16T08:38:36;99293.79;;;21.66;55.50
77526;BME280;66627;29.424;-98.496;2023-05-16T08:41:02;99294.06;;;22.84;54.00
77526;BME280;66627;29.424;-98.496;2023-05-16T08:43:26;99296.32;;;21.83;54.91
77526;BME280;66627;29.424;-98.496;2023-05-16T08:45:51;99297.39;;;21.78;55.24
77526;BME280;66627;29.424;-98.496;2023-05-16T08:48:19;99294.08;;;21.56;55.97
77526;BME280;66627;29.424;-98.496;2023-05-16T08:50:42;99295.43;;;22.24;55.60
77526;BME280;66627;29.424;-98.496;2023-05-16T08:53:08;99294.79;;;22.63;54.95
77526;BME280;66627;29.424;-98.496;2023-05-16T08:55:33;99294.23;;;21.95;55.80
77526;BME280;66627;29.424;-98.496;2023-05-16T08:57:58;99292.28;;;21.09;57.36
77526;BME280;66627;29.424;-98.496;2023-05-16T09:00:23;99297.65;;;21.16;57.45
77526;BME280;66627;29.424;-98.496;2023-05-16T09:02:48;99295.64;;;21.71;56.19
77526;BME280;66627;29.424;-98.496;2023-05-16T09:05:14;99292.74;;;22.35;54.62
77526;BME280;66627;29.424;-98.496;2023-05-16T09:07:38;99296.84;;;21.24;56.96
77526;BME280;66627;29.424;-98.496;2023-05-16T09:10:05;99299.32;;;21.13;58.42
77526;BME280;66627;29.424;-98.496;2023-05-16T09:12:29;99301.72;;;21.45;57.06
77526;BME280;66627;29.424;-98.496;2023-05-16T09:14:54;99307.90;;;21.48;57.13
77526;BME280;66627;29.424;-98.496;2023-05-16T09:17:19;99311.04;;;20.79;58.10
77526;BME280;66627;29.424;-98.496;2023-05-16T09:19:45;99305.43;;;20.45;60.02
77526;BME280;66627;29.424;-98.496;2023-05-16T09:22:10;99304.73;;;20.69;59.09
77526;BME280;66627;29.424;-98.496;2023-05-16T09:24:37;99305.01;;;20.48;59.63
77526;BME280;66627;29.424;-98.496;2023-05-16T09:27:08;99292.74;;;21.57;57.52
77526;BME280;66627;29.424;-98.496;2023-05-16T09:29:24;99289.76;;;21.91;56.72
77526;BME280;66627;29.424;-98.496;2023-05-16T09:31:50;99290.41;;;22.20;56.10
77526;BME280;66627;29.424;-98.496;2023-05-16T09:34:15;99288.09;;;21.19;56.78
77526;BME280;66627;29.424;-98.496;2023-05-16T09:36:40;99287.38;;;21.62;56.26
77526;BME280;66627;29.424;-98.496;2023-05-16T09:39:05;99286.96;;;21.85;55.93
77526;BME280;66627;29.424;-98.496;2023-05-16T09:41:33;99287.69;;;22.52;54.89
77526;BME280;66627;29.424;-98.496;2023-05-16T09:43:55;99289.38;;;22.15;55.70
77526;BME280;66627;29.424;-98.496;2023-05-16T09:46:25;99289.33;;;22.00;55.48
77526;BME280;66627;29.424;-98.496;2023-05-16T09:48:47;99291.54;;;22.52;55.10
77526;BME280;66627;29.424;-98.496;2023-05-16T09:51:13;99292.93;;;21.75;56.01
77526;BME280;66627;29.424;-98.496;2023-05-16T09:53:37;99294.61;;;22.33;54.11
77526;BME280;66627;29.424;-98.496;2023-05-16T09:56:04;99299.78;;;22.02;55.87
77526;BME280;66627;29.424;-98.496;2023-05-16T09:58:29;99297.67;;;22.57;53.86
77526;BME280;66627;29.424;-98.496;2023-05-16T10:00:52;99304.91;;;22.06;55.46
77526;BME280;66627;29.424;-98.496;2023-05-16T10:03:17;99307.51;;;21.97;55.37
77526;BME280;66627;29.424;-98.496;2023-05-16T10:05:43;99307.53;;;21.19;56.50
77526;BME280;66627;29.424;-98.496;2023-05-16T10:08:09;99303.32;;;21.67;55.77
77526;BME280;66627;29.424;-98.496;2023-05-16T10:10:36;99302.41;;;22.07;54.93
77526;BME280;66627;29.424;-98.496;2023-05-16T10:12:59;99307.41;;;21.29;56.59
77526;BME280;66627;29.424;-98.496;2023-05-16T10:15:24;99301.69;;;21.22;56.66
77526;BME280;66627;29.424;-98.496;2023-05-16T10:17:51;99299.59;;;21.29;56.67
77526;BME280;66627;29.424;-98.496;2023-05-16T10:20:15;99294.48;;;21.31;56.83
77526;BME280;66627;29.424;-98.496;2023-05-16T10:22:42;99285.05;;;21.81;55.63
77526;BME280;66627;29.424;-98.496;2023-05-16T10:25:10;99289.49;;;20.96;56.64
77526;BME280;66627;29.424;-98.496;2023-05-16T10:27:31;99286.59;;;21.14;56.56
77526;BME280;66627;29.424;-98.496;2023-05-16T10:29:56;99284.06;;;21.34;56.37
77526;BME280;66627;29.424;-98.496;2023-05-16T10:32:23;99281.62;;;20.97;56.48
77526;BME280;66627;29.424;-98.496;2023-05-16T10:34:46;99278.21;;;21.73;55.75
77526;BME280;66627;29.424;-98.496;2023-05-16T10:37:12;99271.98;;;21.29;56.00
77526;BME280;66627;29.424;-98.496;2023-05-16T10:39:37;99268.00;;;21.83;55.08
77526;BME280;66627;29.424;-98.496;2023-05-16T10:42:03;99261.66;;;21.85;54.98
77526;BME280;66627;29.424;-98.496;2023-05-16T10:44:31;99258.22;;;21.32;56.90
77526;BME280;66627;29.424;-98.496;2023-05-16T10:46:52;99261.49;;;20.95;57.78
77526;BME280;66627;29.424;-98.496;2023-05-16T10:49:21;99258.02;;;21.56;56.92
77526;BME280;66627;29.424;-98.496;2023-05-16T10:51:43;99255.26;;;21.25;56.55
77526;BME280;66627;29.424;-98.496;2023-05-16T10:54:10;99254.37;;;21.97;55.54
77526;BME280;66627;29.424;-98.496;2023-05-16T10:56:34;99252.88;;;21.81;55.73
77526;BME280;66627;29.424;-98.496;2023-05-16T10:58:59;99254.21;;;21.69;55.47
77526;BME280;66627;29.424;-98.496;2023-05-16T11:01:26;99253.46;;;21.57;55.73
77526;BME280;66627;29.424;-98.496;2023-05-16T11:03:59;99250.20;;;21.50;56.63
77526;BME280;66627;29.424;-98.496;2023-05-16T11:06:21;99249.14;;;21.76;55.66
77526;BME280;66627;29.424;-98.496;2023-05-16T11:13:33;99239.26;;;21.86;54.87
77526;BME280;66627;29.424;-98.496;2023-05-16T11:18:21;99238.47;;;22.39;54.63
77526;BME280;66627;29.424;-98.496;2023-05-16T11:20:45;99237.08;;;22.47;54.25
77526;BME280;66627;29.424;-98.496;2023-05-16T11:23:20;99232.76;;;22.09;54.43
77526;BME280;66627;29.424;-98.496;2023-05-16T11:25:36;99234.44;;;21.92;54.58
77526;BME280;66627;29.424;-98.496;2023-05-16T11:28:01;99234.91;;;22.09;55.10
77526;BME280;66627;29.424;-98.496;2023-05-16T11:30:27;99237.26;;;21.45;55.29
77526;BME280;66627;29.424;-98.496;2023-05-16T11:32:55;99236.34;;;21.36;55.21
77526;BME280;66627;29.424;-98.496;2023-05-16T11:35:18;99233.17;;;21.98;54.51
77526;BME280;66627;29.424;-98.496;2023-05-16T11:37:43;99235.44;;;21.68;55.39
77526;BME280;66627;29.424;-98.496;2023-05-16T11:40:09;99237.52;;;22.02;54.72
77526;BME280;66627;29.424;-98.496;2023-05-16T11:42:35;99243.80;;;21.57;55.90
77526;BME280;66627;29.424;-98.496;2023-05-16T11:45:03;99254.50;;;20.72;57.04
77526;BME280;66627;29.424;-98.496;2023-05-16T11:47:24;99255.44;;;21.37;56.04
77526;BME280;66627;29.424;-98.496;2023-05-16T11:49:48;99259.38;;;21.29;56.75
77526;BME280;66627;29.424;-98.496;2023-05-16T11:52:14;99262.94;;;21.09;56.54
77526;BME280;66627;29.424;-98.496;2023-05-16T11:54:40;99262.87;;;20.49;57.85
77526;BME280;66627;29.424;-98.496;2023-05-16T11:57:04;99271.51;;;20.38;58.86
77526;BME280;66627;29.424;-98.496;2023-05-16T11:59:29;99278.27;;;20.24;59.63
77526;BME280;66627;29.424;-98.496;2023-05-16T12:01:54;99280.84;;;19.96;60.40
77526;BME280;66627;29.424;-98.496;2023-05-16T12:04:19;99280.20;;;19.87;60.37
77526;BME280;66627;29.424;-98.496;2023-05-16T12:06:59;99283.80;;;20.45;59.46
77526;BME280;66627;29.424;-98.496;2023-05-16T12:09:13;99285.88;;;20.72;59.11
77526;BME280;66627;29.424;-98.496;2023-05-16T12:11:36;99287.43;;;21.21;58.24
77526;BME280;66627;29.424;-98.496;2023-05-16T12:14:01;99285.28;;;21.98;57.31
77526;BME280;66627;29.424;-98.496;2023-05-16T12:16:26;99284.08;;;21.77;56.80
77526;BME280;66627;29.424;-98.496;2023-05-16T12:18:51;99284.01;;;21.96;56.52
77526;BME280;66627;29.424;-98.496;2023-05-16T12:21:17;99288.34;;;22.16;56.09
77526;BME280;66627;29.424;-98.496;2023-05-16T12:23:42;99291.14;;;22.34;55.91
77526;BME280;66627;29.424;-98.496;2023-05-16T12:26:07;99295.99;;;22.29;55.52
77526;BME280;66627;29.424;-98.496;2023-05-16T12:28:33;99295.72;;;22.88;55.06
77526;BME280;66627;29.424;-98.496;2023-05-16T12:30:57;99297.63;;;22.69;54.85
77526;BME280;66627;29.424;-98.496;2023-05-16T12:33:22;99300.77;;;22.63;54.91
77526;BME280;66627;29.424;-98.496;2023-05-16T12:35:47;99298.93;;;22.76;54.70